Time;durP1;ratioP1;P1;durP2;ratioP2;P2;SDS_P1;SDS_P2;PMS_P1;PMS_P2;Temp;Humidity;BMP_temperature;BMP_pressure;BME280_temperature;BME280_humidity;BME280_pressure;Samples;Min_cycle;Max_cycle;Signal;HPM_P1;HPM_P2
2022/06/01 00:01:11;;;;;;;4.22;3.92;;;14.40;59.50;;;;;;4934157;29;20048;-53
2022/06/01 00:03:43;;;;;;;4.95;4.45;;;14.40;59.50;;;;;;4946402;28;20047;-51
2022/06/01 00:06:14;;;;;;;4.45;4.05;;;14.40;59.40;;;;;;4934579;28;20043;-51
2022/06/01 00:08:43;;;;;;;4.80;4.30;;;14.40;59.50;;;;;;4938862;28;20570;-53
2022/06/01 00:11:10;;;;;;;4.95;4.55;;;14.30;59.30;;;;;;4953411;29;20093;-49
2022/06/01 00:13:37;;;;;;;4.65;4.28;;;14.30;59.30;;;;;;4937928;29;20039;-51
2022/06/01 00:16:17;;;;;;;5.05;4.57;;;14.30;59.30;;;;;;4940194;29;20086;-54
2022/06/01 00:18:46;;;;;;;4.88;4.47;;;14.20;59.30;;;;;;4956340;28;20065;-50
2022/06/01 00:21:13;;;;;;;5.30;4.90;;;14.20;59.30;;;;;;4944879;28;20063;-52
2022/06/01 00:23:44;;;;;;;7.15;4.90;;;14.10;59.30;;;;;;4934130;29;20057;-51
2022/06/01 00:26:13;;;;;;;5.28;4.88;;;14.10;59.40;;;;;;4928695;28;20119;-53
2022/06/01 00:28:43;;;;;;;5.68;4.35;;;14.10;59.30;;;;;;4948808;28;20071;-53
2022/06/01 00:31:13;;;;;;;4.63;4.22;;;14.00;59.10;;;;;;4949783;29;20131;-52
2022/06/01 00:33:43;;;;;;;5.88;4.70;;;14.00;59.10;;;;;;4953291;28;20054;-51
2022/06/01 00:36:12;;;;;;;4.85;4.05;;;13.90;59.00;;;;;;4936472;28;20063;-51
2022/06/01 00:38:41;;;;;;;4.97;4.47;;;13.90;58.90;;;;;;4944592;28;20098;-49
2022/06/01 00:41:13;;;;;;;5.40;4.78;;;13.80;58.80;;;;;;4950171;29;20043;-50
2022/06/01 00:43:44;;;;;;;4.78;4.22;;;13.80;58.80;;;;;;4956700;23;20125;31
2022/06/01 00:46:14;;;;;;;4.65;4.25;;;13.80;58.80;;;;;;4895046;29;20437;-53
2022/06/01 00:48:52;;;;;;;5.13;4.50;;;13.70;58.80;;;;;;4907190;29;20091;-51
2022/06/01 00:51:26;;;;;;;4.75;4.18;;;13.70;58.80;;;;;;4914922;29;20095;-49
2022/06/01 00:53:54;;;;;;;4.95;4.50;;;13.60;58.80;;;;;;4893087;29;20076;-51
2022/06/01 00:56:37;;;;;;;5.13;4.53;;;13.60;58.90;;;;;;4901469;29;20048;-51
2022/06/01 00:59:10;;;;;;;4.63;4.15;;;13.50;59.50;;;;;;4902789;29;20509;-52
2022/06/01 01:01:42;;;;;;;5.32;4.18;;;13.50;59.20;;;;;;4904768;29;20043;-49
2022/06/01 01:04:10;;;;;;;6.32;5.07;;;13.40;60.10;;;;;;4898828;29;20052;-54
2022/06/01 01:06:41;;;;;;;5.28;4.78;;;13.40;60.40;;;;;;4899999;29;20070;-50
2022/06/01 01:09:10;;;;;;;5.20;4.70;;;13.40;61.00;;;;;;4893120;29;20045;-51
2022/06/01 01:12:05;;;;;;;5.47;4.82;;;13.40;61.20;;;;;;4889716;29;20064;-49
2022/06/01 01:14:40;;;;;;;5.45;4.95;;;13.40;62.90;;;;;;4883911;29;20056;-50
2022/06/01 01:17:06;;;;;;;5.50;4.95;;;13.40;61.90;;;;;;4904081;29;20067;-50
2022/06/01 01:19:46;;;;;;;5.70;5.10;;;13.50;62.00;;;;;;4906569;29;20083;-54
2022/06/01 01:22:36;;;;;;;6.60;5.10;;;13.50;63.20;;;;;;4896508;29;20453;-50
2022/06/01 01:25:24;;;;;;;5.25;4.10;;;13.50;63.60;;;;;;4903938;29;20048;-50
2022/06/01 01:27:54;;;;;;;5.35;4.68;;;13.60;62.80;;;;;;4893505;29;20569;-51
2022/06/01 01:30:37;;;;;;;6.20;5.60;;;13.60;62.60;;;;;;4904774;29;20079;-51
2022/06/01 01:33:13;;;;;;;7.95;4.70;;;13.60;63.20;;;;;;4896962;29;20520;-52
2022/06/01 01:35:42;;;;;;;4.82;4.43;;;13.70;63.20;;;;;;4905362;29;20523;-50
2022/06/01 01:38:50;;;;;;;6.15;4.85;;;13.70;62.80;;;;;;4914045;29;20043;-49
2022/06/01 01:41:40;;;;;;;5.43;4.93;;;13.80;63.90;;;;;;4870813;29;20057;-51
2022/06/01 01:44:16;;;;;;;5.55;4.85;;;13.80;63.30;;;;;;4905350;29;20560;-54
2022/06/01 01:46:48;;;;;;;4.68;4.25;;;13.80;63.10;;;;;;4913550;29;20052;-51
2022/06/01 01:49:16;;;;;;;;;;;13.80;62.60;;;;;;4902294;29;20045;-49
2022/06/01 01:51:43;;;;;;;5.50;4.45;;;13.90;62.80;;;;;;4895226;29;19934;-50
2022/06/01 01:54:17;;;;;;;6.63;4.47;;;13.90;61.90;;;;;;4903219;29;20045;-52
2022/06/01 01:57:08;;;;;;;5.22;4.72;;;13.90;62.70;;;;;;4914065;29;20531;-52
2022/06/01 01:59:59;;;;;;;6.47;4.70;;;13.90;63.10;;;;;;4902212;29;20374;-52
2022/06/01 02:02:46;;;;;;;5.63;4.38;;;13.90;63.30;;;;;;4902906;29;20107;-53
2022/06/01 02:06:04;;;;;;;5.20;4.72;;;13.90;63.00;;;;;;4909285;29;20080;-51
2022/06/01 02:08:46;;;;;;;4.68;4.28;;;13.90;63.20;;;;;;4896549;29;20044;-55
2022/06/01 02:14:47;;;;;;;4.93;4.45;;;13.90;63.10;;;;;;4893914;29;20075;-56
2022/06/01 02:17:20;;;;;;;5.45;4.63;;;13.90;62.20;;;;;;4892848;29;20108;-54
2022/06/01 02:19:56;;;;;;;8.07;5.03;;;13.90;62.20;;;;;;4891920;29;20065;-51
2022/06/01 02:22:24;;;;;;;5.43;4.93;;;13.80;62.30;;;;;;4904140;29;20049;-53
2022/06/01 02:24:51;;;;;;;6.97;4.63;;;13.80;62.00;;;;;;4912425;29;20420;-54
2022/06/01 02:27:19;;;;;;;4.88;4.40;;;13.80;62.00;;;;;;4899107;29;20426;-52
2022/06/01 02:29:50;;;;;;;5.57;5.07;;;13.80;62.20;;;;;;4888944;29;20123;-51
2022/06/01 02:32:18;;;;;;;6.18;4.80;;;13.80;62.20;;;;;;4902662;29;20053;-51
2022/06/01 02:34:46;;;;;;;5.90;4.60;;;13.70;63.00;;;;;;4916097;29;20147;-54
2022/06/01 02:37:17;;;;;;;5.50;4.97;;;13.70;62.40;;;;;;4902058;29;20080;-51
2022/06/01 02:39:55;;;;;;;5.10;4.60;;;13.80;62.90;;;;;;4909378;29;20073;-49
2022/06/01 02:42:26;;;;;;;5.93;4.43;;;13.70;63.20;;;;;;4915728;29;20058;-53
2022/06/01 02:45:00;;;;;;;4.90;4.45;;;13.70;62.40;;;;;;4915670;29;20052;-50
2022/06/01 02:47:30;;;;;;;6.38;4.85;;;13.70;62.80;;;;;;4898887;29;20100;-49
2022/06/01 02:49:58;;;;;;;6.15;4.47;;;13.70;62.70;;;;;;4910181;29;20092;-50
2022/06/01 02:52:32;;;;;;;5.05;4.63;;;13.70;62.70;;;;;;4915552;29;20543;-50
2022/06/01 02:55:05;;;;;;;5.00;4.60;;;13.60;62.70;;;;;;4915901;29;20463;-51
2022/06/01 02:57:35;;;;;;;5.10;4.60;;;13.70;62.70;;;;;;4906074;29;20504;-52
2022/06/01 03:00:07;;;;;;;6.22;4.75;;;13.70;62.70;;;;;;4908983;29;20471;-51
2022/06/01 03:02:44;;;;;;;4.80;4.40;;;13.60;62.80;;;;;;4901083;29;20472;-53
2022/06/01 03:05:12;;;;;;;6.55;5.07;;;13.70;63.10;;;;;;4895423;29;20611;-53
2022/06/01 03:07:40;;;;;;;6.38;4.78;;;13.70;62.90;;;;;;4904784;29;20052;-49
2022/06/01 03:10:12;;;;;;;6.25;5.65;;;13.70;63.00;;;;;;4909149;29;20040;-49
2022/06/01 03:12:39;;;;;;;4.70;4.20;;;13.70;63.00;;;;;;4898292;29;20461;-51
2022/06/01 03:15:08;;;;;;;5.25;4.75;;;13.70;62.80;;;;;;4892331;29;20123;-52
2022/06/01 03:17:37;;;;;;;5.80;5.28;;;13.70;62.80;;;;;;4905632;29;20069;-50
2022/06/01 03:20:08;;;;;;;6.35;5.18;;;13.70;63.30;;;;;;4913344;29;20143;-50
2022/06/01 03:22:36;;;;;;;5.85;5.13;;;13.70;62.80;;;;;;4917133;29;20051;-51
2022/06/01 03:25:07;;;;;;;7.00;5.50;;;13.70;62.60;;;;;;4898798;29;20044;-50
2022/06/01 03:27:40;;;;;;;6.97;5.38;;;13.70;62.70;;;;;;4902385;29;20051;-54
2022/06/01 03:30:18;;;;;;;5.93;5.32;;;13.60;62.60;;;;;;4908574;29;20048;-52
2022/06/01 03:32:47;;;;;;;6.50;4.85;;;13.70;62.80;;;;;;4905574;29;20047;-51
2022/06/01 03:35:17;;;;;;;6.75;5.00;;;13.60;62.70;;;;;;4896788;29;20135;-54
2022/06/01 03:37:44;;;;;;;6.82;6.03;;;13.60;62.80;;;;;;4903252;29;20048;-54
2022/06/01 03:40:17;;;;;;;6.75;5.65;;;13.60;62.80;;;;;;4905944;29;20076;-53
2022/06/01 03:42:46;;;;;;;7.30;6.43;;;13.60;62.90;;;;;;4910742;29;20063;-55
2022/06/01 03:48:18;;;;;;;7.18;6.03;;;13.50;63.00;;;;;;4906185;29;20060;-54
2022/06/01 03:50:48;;;;;;;6.25;5.65;;;13.50;62.80;;;;;;4914263;29;20083;-51
2022/06/01 03:53:15;;;;;;;7.32;6.57;;;13.40;62.90;;;;;;4898345;29;20049;-53
2022/06/01 03:55:42;;;;;;;9.68;6.57;;;13.50;63.10;;;;;;4905675;29;20160;-53
2022/06/01 03:58:21;;;;;;;8.27;6.20;;;13.40;63.20;;;;;;4913176;29;20083;-52
2022/06/01 04:00:51;;;;;;;7.25;6.50;;;13.40;63.80;;;;;;4899788;29;20541;-51
2022/06/01 04:03:21;;;;;;;6.78;6.07;;;13.40;63.20;;;;;;4899744;29;20528;-51
2022/06/01 04:05:48;;;;;;;7.28;6.57;;;13.40;63.50;;;;;;4907223;29;20048;-53
2022/06/01 04:08:15;;;;;;;6.80;6.13;;;13.40;63.40;;;;;;4914946;29;20580;-52
2022/06/01 04:10:46;;;;;;;6.97;6.13;;;13.40;63.50;;;;;;4896541;29;20123;-53
2022/06/01 04:13:14;;;;;;;7.35;5.82;;;13.40;63.60;;;;;;4902885;29;20049;-51
2022/06/01 04:15:43;;;;;;;6.43;5.82;;;13.30;63.60;;;;;;4906896;29;20099;-51
2022/06/01 04:18:10;;;;;;;6.93;6.07;;;13.40;63.60;;;;;;4916308;29;20084;-53
2022/06/01 04:20:43;;;;;;;7.68;6.97;;;13.30;63.70;;;;;;4899625;29;20068;-52
2022/06/01 04:23:11;;;;;;;7.47;6.35;;;13.30;63.90;;;;;;4907115;29;20099;-55
2022/06/01 04:25:37;;;;;;;6.75;6.05;;;13.40;63.70;;;;;;4907295;29;20135;-54
2022/06/01 04:28:04;;;;;;;8.07;6.35;;;13.40;63.80;;;;;;4908481;29;20103;-54
2022/06/01 04:30:31;;;;;;;7.22;6.47;;;13.40;63.80;;;;;;4886893;29;20592;-53
2022/06/01 04:32:58;;;;;;;8.60;6.55;;;13.40;63.80;;;;;;4906926;29;20074;-54
2022/06/01 04:35:26;;;;;;;8.35;5.70;;;13.30;63.80;;;;;;4902800;29;20449;-52
2022/06/01 04:37:52;;;;;;;9.70;6.80;;;13.40;64.00;;;;;;4893616;29;20083;-49
2022/06/01 04:40:21;;;;;;;7.40;6.43;;;13.40;64.10;;;;;;4895337;29;20057;-55
2022/06/01 04:42:48;;;;;;;6.60;6.00;;;13.40;64.20;;;;;;4888948;29;20128;-52
2022/06/01 04:45:16;;;;;;;7.90;6.47;;;13.40;64.20;;;;;;4894027;29;20571;-50
2022/06/01 04:47:42;;;;;;;7.95;5.95;;;13.40;64.20;;;;;;4905573;29;20064;-53
2022/06/01 04:50:09;;;;;;;8.65;5.75;;;13.50;64.10;;;;;;4888172;29;20103;-50
2022/06/01 04:52:39;;;;;;;6.57;5.95;;;13.40;64.00;;;;;;4906256;29;20044;-54
2022/06/01 04:55:07;;;;;;;6.55;5.70;;;13.40;64.00;;;;;;4904601;29;20071;-52
2022/06/01 04:57:34;;;;;;;6.65;5.88;;;13.50;64.10;;;;;;4894233;29;20088;-52
2022/06/01 05:00:01;;;;;;;8.13;6.03;;;13.50;64.30;;;;;;4895161;29;20076;-53
2022/06/01 05:02:28;;;;;;;10.98;6.55;;;13.50;64.30;;;;;;4911204;29;20115;-54
2022/06/01 05:04:55;;;;;;;6.40;5.28;;;13.50;64.10;;;;;;4883717;29;20093;-53
2022/06/01 05:07:22;;;;;;;8.25;5.57;;;13.50;64.20;;;;;;4891151;29;20053;-52
2022/06/01 05:09:48;;;;;;;6.38;4.97;;;13.60;64.50;;;;;;4905284;29;20084;-50
2022/06/01 05:12:18;;;;;;;8.63;6.40;;;13.60;64.50;;;;;;4896374;29;20053;-52
2022/06/01 05:14:48;;;;;;;6.55;5.78;;;13.60;64.50;;;;;;4894064;29;20639;-53
2022/06/01 05:17:14;;;;;;;7.68;6.10;;;13.60;64.50;;;;;;4888037;29;20076;-52
2022/06/01 05:19:42;;;;;;;5.53;5.03;;;13.70;64.60;;;;;;4899771;29;20119;-52
2022/06/01 05:22:09;;;;;;;6.43;5.75;;;13.70;64.60;;;;;;4896104;29;20040;-51
2022/06/01 05:24:36;;;;;;;7.40;5.75;;;13.70;64.60;;;;;;4897340;29;20052;-52
2022/06/01 05:27:03;;;;;;;6.53;5.93;;;13.80;64.40;;;;;;4903744;29;20130;-55
2022/06/01 05:29:29;;;;;;;5.25;4.75;;;13.80;64.30;;;;;;4893210;29;20053;-54
2022/06/01 05:31:56;;;;;;;9.38;5.43;;;13.90;64.20;;;;;;4901905;29;20475;-51
2022/06/01 05:34:23;;;;;;;7.05;5.50;;;13.90;64.20;;;;;;4892397;29;20087;-56
2022/06/01 05:36:49;;;;;;;6.30;4.57;;;13.90;64.40;;;;;;4879145;29;20075;-55
2022/06/01 05:39:16;;;;;;;7.10;5.55;;;14.00;64.30;;;;;;4901981;29;20143;-51
2022/06/01 05:41:43;;;;;;;7.20;5.25;;;14.00;64.10;;;;;;4905657;29;20083;-54
2022/06/01 05:44:09;;;;;;;7.88;5.80;;;14.00;64.10;;;;;;4907405;29;20053;-55
2022/06/01 05:46:36;;;;;;;6.20;5.55;;;14.10;64.10;;;;;;4890380;29;20128;-54
2022/06/01 05:49:03;;;;;;;5.72;4.65;;;14.10;64.20;;;;;;4894957;29;20101;-54
2022/06/01 05:51:30;;;;;;;5.30;4.63;;;14.10;64.00;;;;;;4900044;29;20108;-55
2022/06/01 05:53:57;;;;;;;4.93;4.50;;;14.20;64.10;;;;;;4890707;29;20417;-54
2022/06/01 05:56:24;;;;;;;5.68;4.72;;;14.20;63.80;;;;;;4898414;29;20117;-53
2022/06/01 05:58:51;;;;;;;6.40;4.70;;;14.30;64.00;;;;;;4900081;29;20036;-53
2022/06/01 06:01:22;;;;;;;4.93;4.18;;;14.30;63.90;;;;;;4901284;29;20100;-54
2022/06/01 06:03:49;;;;;;;4.93;4.28;;;14.30;64.10;;;;;;4892434;29;20109;-53
2022/06/01 06:06:16;;;;;;;5.95;3.92;;;14.30;64.10;;;;;;4901145;29;20076;-53
2022/06/01 06:08:56;;;;;;;6.50;4.57;;;14.40;64.40;;;;;;4908651;29;20131;-53
2022/06/01 06:11:26;;;;;;;5.18;4.45;;;14.50;64.00;;;;;;4916225;29;20044;-52
2022/06/01 06:13:55;;;;;;;5.37;4.47;;;14.50;63.30;;;;;;4895632;29;20429;-51
2022/06/01 06:16:22;;;;;;;4.72;4.13;;;14.60;63.10;;;;;;4905931;29;20052;-49
2022/06/01 06:18:50;;;;;;;3.80;3.50;;;14.60;63.00;;;;;;4912173;29;20457;-51
2022/06/01 06:21:18;;;;;;;6.75;4.70;;;14.60;63.00;;;;;;4897291;29;20060;-50
2022/06/01 06:23:45;;;;;;;4.78;3.85;;;14.60;62.90;;;;;;4895470;29;20104;-55
2022/06/01 06:26:11;;;;;;;5.93;3.75;;;14.60;63.20;;;;;;4904296;29;20074;-53
2022/06/01 06:28:38;;;;;;;4.50;3.78;;;14.70;63.20;;;;;;4915806;29;20087;-51
2022/06/01 06:31:05;;;;;;;6.45;4.10;;;14.70;63.30;;;;;;4902908;29;20079;-53
2022/06/01 06:33:34;;;;;;;3.78;3.47;;;14.80;63.50;;;;;;4917247;29;20151;-53
2022/06/01 06:36:04;;;;;;;5.55;4.78;;;14.80;63.60;;;;;;4903916;29;20487;-55
2022/06/01 06:38:33;;;;;;;4.72;3.97;;;14.90;63.50;;;;;;4905522;29;20116;-53
2022/06/01 06:41:01;;;;;;;5.07;4.50;;;15.00;63.80;;;;;;4904826;29;20044;-52
2022/06/01 06:43:29;;;;;;;5.38;4.40;;;15.00;63.70;;;;;;4915556;29;20185;-50
2022/06/01 06:46:03;;;;;;;5.25;4.45;;;15.10;63.50;;;;;;4914808;29;20076;-53
2022/06/01 06:48:29;;;;;;;5.70;4.07;;;15.20;63.40;;;;;;4932223;23;20438;-49
2022/06/01 06:50:57;;;;;;;6.03;4.10;;;15.30;63.40;;;;;;4969283;28;20113;-49
2022/06/01 06:53:24;;;;;;;6.53;4.35;;;15.40;63.20;;;;;;4985432;28;20066;-50
2022/06/01 06:55:51;;;;;;;4.57;4.05;;;15.50;63.10;;;;;;4985530;28;20070;-50
2022/06/01 06:58:18;;;;;;;5.18;4.15;;;15.60;62.90;;;;;;4992696;28;20046;-50
2022/06/01 07:00:44;;;;;;;7.10;4.55;;;15.60;62.90;;;;;;4950833;28;20074;-50
2022/06/01 07:03:12;;;;;;;6.43;5.28;;;15.70;62.90;;;;;;4962711;28;20070;-49
2022/06/01 07:08:25;;;;;;;6.90;4.05;;;15.90;62.90;;;;;;4953562;28;20074;-49
2022/06/01 07:10:53;;;;;;;5.78;4.30;;;15.90;62.50;;;;;;4956082;28;20502;-50
2022/06/01 07:13:21;;;;;;;7.97;4.53;;;16.00;62.60;;;;;;4963416;28;20081;-50
2022/06/01 07:15:49;;;;;;;5.90;3.80;;;16.10;62.30;;;;;;4972044;28;20078;-50
2022/06/01 07:18:17;;;;;;;5.82;4.18;;;16.10;62.10;;;;;;4950125;28;20059;-50
2022/06/01 07:20:43;;;;;;;5.05;3.40;;;16.20;62.20;;;;;;4963250;28;20456;-49
2022/06/01 07:23:10;;;;;;;5.57;3.72;;;16.20;62.10;;;;;;4969513;28;20502;-49
2022/06/01 07:25:37;;;;;;;5.97;3.67;;;16.30;61.90;;;;;;4957056;28;20042;-52
2022/06/01 07:28:04;;;;;;;7.30;3.78;;;16.30;62.00;;;;;;4949107;28;20507;-51
2022/06/01 07:30:30;;;;;;;6.38;4.05;;;16.40;62.40;;;;;;4958873;28;20082;-50
2022/06/01 07:32:57;;;;;;;6.20;4.22;;;16.40;62.40;;;;;;4963938;28;20132;-50
2022/06/01 07:35:24;;;;;;;4.90;3.85;;;16.40;61.70;;;;;;4971109;28;20500;-53
2022/06/01 07:43:23;;;;;;;4.00;3.67;;;16.50;61.50;;;;;;4960080;28;20074;-50
2022/06/01 07:45:50;;;;;;;6.35;4.38;;;16.50;61.70;;;;;;4951307;28;20466;-50
2022/06/01 07:48:17;;;;;;;6.57;4.25;;;16.50;61.60;;;;;;4949900;28;20066;-52
2022/06/01 07:51:04;;;;;;;5.60;4.00;;;16.50;61.90;;;;;;4959508;28;20137;-49
2022/06/01 07:53:32;;;;;;;6.43;3.95;;;16.60;61.80;;;;;;4953378;28;20050;-50
2022/06/01 07:55:58;;;;;;;4.47;3.72;;;16.60;61.60;;;;;;4944792;29;20123;-53
2022/06/01 07:58:25;;;;;;;7.80;4.30;;;16.70;61.70;;;;;;4959031;28;20063;-52
2022/06/01 08:00:52;;;;;;;4.40;3.90;;;16.70;62.00;;;;;;4952344;28;20121;-53
2022/06/01 08:03:20;;;;;;;5.45;4.85;;;16.80;61.80;;;;;;4952221;29;20125;-50
2022/06/01 08:05:47;;;;;;;4.72;4.32;;;16.80;61.70;;;;;;4948453;28;20070;-51
2022/06/01 08:08:14;;;;;;;4.22;3.67;;;16.90;61.80;;;;;;4963258;28;20047;-52
2022/06/01 08:10:43;;;;;;;6.00;3.45;;;17.00;61.80;;;;;;4963635;28;20050;-49
2022/06/01 08:13:13;;;;;;;5.05;4.32;;;17.10;61.70;;;;;;4972386;28;20506;-50
2022/06/01 08:15:47;;;;;;;5.70;4.40;;;17.10;60.70;;;;;;4959256;28;20067;-52
2022/06/01 08:18:19;;;;;;;4.50;4.03;;;17.20;60.00;;;;;;4947709;28;20043;-52
2022/06/01 08:20:47;;;;;;;5.90;3.97;;;17.30;59.80;;;;;;4954970;28;20063;-49
2022/06/01 08:23:19;;;;;;;;;;;17.30;60.10;;;;;;4949508;28;20043;-52
2022/06/01 08:25:50;;;;;;;2.83;2.53;;;17.50;60.20;;;;;;4948080;28;19934;-50
2022/06/01 08:28:18;;;;;;;5.18;3.13;;;17.60;59.30;;;;;;4960498;28;20047;-49
2022/06/01 08:30:45;;;;;;;3.97;3.25;;;17.70;58.80;;;;;;4951276;28;20106;-54
2022/06/01 08:33:12;;;;;;;4.13;3.05;;;17.80;58.40;;;;;;4952444;28;20043;-51
2022/06/01 08:35:44;;;;;;;4.82;3.33;;;17.80;58.40;;;;;;4945658;28;20499;-52
2022/06/01 08:38:12;;;;;;;4.45;2.95;;;17.90;58.50;;;;;;4960680;28;20098;-54
2022/06/01 08:40:47;;;;;;;5.10;3.22;;;18.00;58.00;;;;;;4954982;28;20043;-54
2022/06/01 08:43:16;;;;;;;3.25;2.53;;;18.10;57.60;;;;;;4945941;28;20070;-52
2022/06/01 08:45:48;;;;;;;2.97;2.78;;;18.20;57.50;;;;;;4950528;28;20039;-50
2022/06/01 08:48:18;;;;;;;3.78;2.75;;;18.30;57.70;;;;;;4963740;28;20038;-49
2022/06/01 08:50:46;;;;;;;3.85;2.78;;;18.40;57.40;;;;;;4966937;28;20082;-50
2022/06/01 08:53:13;;;;;;;5.25;3.30;;;18.50;57.20;;;;;;4956714;28;20118;-53
2022/06/01 08:55:53;;;;;;;4.20;2.13;;;18.60;55.70;;;;;;4958316;28;20506;-52
2022/06/01 08:58:33;;;;;;;4.30;2.80;;;18.80;54.50;;;;;;4951083;28;20404;-51
2022/06/01 09:01:15;;;;;;;3.40;2.63;;;18.90;54.60;;;;;;4948243;28;20043;-54
2022/06/01 09:04:23;;;;;;;5.35;2.40;;;18.90;54.50;;;;;;4945665;28;20047;-52
2022/06/01 09:07:15;;;;;;;5.05;3.85;;;18.90;54.80;;;;;;4962613;28;20137;-50
2022/06/01 09:10:19;;;;;;;3.63;2.40;;;19.10;54.60;;;;;;4957795;28;20094;-52
2022/06/01 09:13:02;;;;;;;1.83;1.73;;;19.10;53.50;;;;;;4959377;28;20103;-50
2022/06/01 09:15:40;;;;;;;3.60;2.40;;;19.10;53.10;;;;;;4960926;28;20047;-54
2022/06/01 09:18:06;;;;;;;2.33;2.00;;;19.10;52.90;;;;;;4965429;28;20570;-49
2022/06/01 09:23:19;;;;;;;2.63;2.20;;;19.10;52.70;;;;;;4962035;28;20082;-49
2022/06/01 09:25:51;;;;;;;5.35;2.47;;;19.10;52.90;;;;;;4951349;28;20057;-53
2022/06/01 09:28:22;;;;;;;3.20;2.63;;;19.10;52.70;;;;;;4951308;28;20075;-53
2022/06/01 09:31:22;;;;;;;4.20;2.10;;;19.20;53.00;;;;;;4952815;28;20126;-50
2022/06/01 09:33:49;;;;;;;5.95;3.67;;;19.30;53.80;;;;;;4953926;28;20047;-53
2022/06/01 09:36:25;;;;;;;2.63;2.00;;;19.30;53.60;;;;;;4952437;28;20094;-51
2022/06/01 09:38:58;;;;;;;3.10;2.25;;;19.40;52.50;;;;;;4948396;28;20076;-51
2022/06/01 09:41:31;;;;;;;2.13;1.77;;;19.40;52.50;;;;;;4951481;28;20571;-49
2022/06/01 09:44:04;;;;;;;4.38;2.10;;;19.50;51.90;;;;;;4962403;28;20605;-52
2022/06/01 09:46:40;;;;;;;2.22;2.03;;;19.50;51.40;;;;;;4968723;28;20125;-51
2022/06/01 09:49:29;;;;;;;3.08;2.28;;;19.50;52.40;;;;;;4956761;28;20066;-51
2022/06/01 09:52:02;;;;;;;3.30;2.42;;;19.60;51.60;;;;;;4952886;28;20043;-50
2022/06/01 09:54:33;;;;;;;;;;;19.60;51.50;;;;;;4958044;28;20121;-50
2022/06/01 09:57:16;;;;;;;2.53;1.75;;;19.70;52.00;;;;;;4940456;28;19965;-50
2022/06/01 10:08:20;;;;;;;3.05;1.58;;;19.90;50.90;;;;;;4961929;28;20035;-49
2022/06/01 10:11:21;;;;;;;2.60;1.90;;;19.90;49.70;;;;;;4955586;28;20051;-50
2022/06/01 10:14:25;;;;;;;2.13;1.50;;;20.00;50.00;;;;;;4945568;28;20074;-51
2022/06/01 10:17:03;;;;;;;3.00;1.80;;;20.00;49.40;;;;;;4929206;28;20080;-50
2022/06/01 10:19:38;;;;;;;1.77;1.23;;;20.10;48.10;;;;;;4963907;28;20047;-51
2022/06/01 10:22:08;;;;;;;2.25;1.52;;;20.20;48.70;;;;;;4964918;28;20053;-51
2022/06/01 10:25:19;;;;;;;3.55;2.25;;;20.20;48.60;;;;;;4966195;28;20133;-47
2022/06/01 10:27:58;;;;;;;5.85;2.20;;;20.20;49.00;;;;;;4947574;28;20042;-50
2022/06/01 10:30:36;;;;;;;2.90;1.80;;;20.30;48.40;;;;;;4962072;28;20054;-53
2022/06/01 10:33:28;;;;;;;3.10;1.70;;;20.30;48.20;;;;;;4968501;28;20129;-50
2022/06/01 10:36:02;;;;;;;3.92;1.90;;;20.30;48.10;;;;;;4951541;28;20139;-51
2022/06/01 10:38:43;;;;;;;3.25;1.85;;;20.40;49.40;;;;;;4963361;28;20094;-53
2022/06/01 10:41:19;;;;;;;4.23;2.07;;;20.40;48.00;;;;;;4953414;28;20074;-50
2022/06/01 10:43:54;;;;;;;1.55;1.45;;;20.40;48.70;;;;;;4947080;28;20073;-51
2022/06/01 10:46:40;;;;;;;3.53;3.05;;;20.50;48.50;;;;;;4946179;28;20066;-50
2022/06/01 10:49:22;;;;;;;2.47;1.77;;;20.60;47.40;;;;;;4958993;28;20043;-49
2022/06/01 10:52:08;;;;;;;1.63;1.40;;;20.70;47.70;;;;;;4934544;29;20114;-50
2022/06/01 10:54:58;;;;;;;2.88;1.38;;;20.80;47.00;;;;;;4950114;28;20330;-50
2022/06/01 10:57:25;;;;;;;2.92;1.60;;;20.90;47.70;;;;;;4960771;28;20070;-51
2022/06/01 10:59:52;;;;;;;3.78;1.85;;;21.00;47.40;;;;;;4953282;28;20464;-47
2022/06/01 11:02:37;;;;;;;2.85;1.60;;;21.10;46.90;;;;;;4949719;28;20079;-50
2022/06/01 11:05:25;;;;;;;3.28;1.30;;;21.20;47.20;;;;;;4949831;29;20043;-50
2022/06/01 11:08:07;;;;;;;5.00;1.58;;;21.30;47.00;;;;;;4966321;28;20055;-50
2022/06/01 11:10:53;;;;;;;3.35;1.45;;;21.30;46.90;;;;;;4952996;28;20042;-52
2022/06/01 11:13:44;;;;;;;1.80;1.70;;;21.40;46.30;;;;;;4949103;28;20471;-50
2022/06/01 11:16:18;;;;;;;5.63;1.95;;;21.50;46.80;;;;;;4941062;28;20071;-50
2022/06/01 11:19:23;;;;;;;1.95;1.20;;;21.60;45.40;;;;;;4940884;28;20078;-53
2022/06/01 11:21:55;;;;;;;2.72;1.23;;;21.70;45.50;;;;;;4952298;28;20087;-54
2022/06/01 11:24:24;;;;;;;;;;;21.80;45.00;;;;;;4957056;28;20066;-54
2022/06/01 11:27:34;;;;;;;2.47;1.27;;;21.90;46.40;;;;;;4947372;28;19922;-54
2022/06/01 11:30:04;;;;;;;4.90;1.52;;;22.00;44.40;;;;;;4952316;28;20141;-54
2022/06/01 11:32:40;;;;;;;1.73;1.45;;;21.90;45.00;;;;;;4956514;28;20043;-54
2022/06/01 11:35:21;;;;;;;2.30;1.60;;;22.00;44.70;;;;;;4954775;28;20411;-52
2022/06/01 11:38:00;;;;;;;3.08;1.60;;;21.90;45.20;;;;;;4966875;28;20113;-51
2022/06/01 11:40:37;;;;;;;1.45;1.17;;;22.00;44.50;;;;;;4962654;28;20044;-54
2022/06/01 11:43:15;;;;;;;2.95;1.73;;;22.00;45.00;;;;;;4947676;28;20074;-52
2022/06/01 11:45:47;;;;;;;2.90;1.33;;;22.10;44.40;;;;;;4958017;28;20097;-53
2022/06/01 11:48:19;;;;;;;;;;;22.20;44.20;;;;;;4966046;28;20053;-54
2022/06/01 11:50:57;;;;;;;1.77;1.10;;;22.30;45.30;;;;;;4948038;28;19926;-54
2022/06/01 11:53:33;;;;;;;2.47;1.63;;;22.40;44.00;;;;;;4965577;28;20042;-53
2022/06/01 11:56:30;;;;;;;1.35;1.25;;;22.50;43.30;;;;;;4953243;28;20043;-54
2022/06/01 11:59:05;;;;;;;2.70;1.30;;;22.60;43.70;;;;;;4953220;28;20043;-54
2022/06/01 12:01:46;;;;;;;2.40;1.08;;;22.70;43.40;;;;;;4959382;28;20388;-54
2022/06/01 12:04:51;;;;;;;3.22;1.63;;;22.80;42.30;;;;;;4971939;28;20055;-52
2022/06/01 12:07:24;;;;;;;1.88;1.17;;;22.80;42.00;;;;;;4972278;28;20051;-53
2022/06/01 12:10:18;;;;;;;2.80;1.40;;;22.80;41.90;;;;;;4949086;28;20051;-51
2022/06/01 12:13:19;;;;;;;2.65;1.40;;;22.70;41.70;;;;;;4960639;28;20043;-54
2022/06/01 12:16:22;;;;;;;1.63;1.50;;;22.60;42.10;;;;;;4927244;29;20114;-54
2022/06/01 12:19:09;;;;;;;1.10;0.90;;;22.60;42.50;;;;;;4948026;28;20039;-52
2022/06/01 12:21:58;;;;;;;0.68;0.65;;;22.60;42.90;;;;;;4953848;28;20503;-54
2022/06/01 12:30:14;;;;;;;2.13;2.03;;;22.50;42.30;;;;;;4953015;28;20047;-53
2022/06/01 12:32:59;;;;;;;2.42;2.17;;;22.40;42.80;;;;;;4959944;28;20043;-51
2022/06/01 12:35:36;;;;;;;3.42;3.10;;;22.40;42.40;;;;;;4945938;28;20066;-51
2022/06/01 12:38:12;;;;;;;3.05;2.70;;;22.30;42.90;;;;;;4963003;28;20039;-52
2022/06/01 12:40:40;;;;;;;3.20;3.00;;;22.20;43.30;;;;;;4946397;28;20047;-53
2022/06/01 12:43:15;;;;;;;3.47;3.17;;;22.20;43.80;;;;;;4952129;29;20043;-54
2022/06/01 12:45:43;;;;;;;3.28;3.08;;;22.10;43.90;;;;;;4951564;28;20125;-54
2022/06/01 12:48:22;;;;;;;5.32;3.53;;;22.10;44.00;;;;;;4953838;28;20388;-53
2022/06/01 12:51:00;;;;;;;3.65;3.30;;;21.90;44.00;;;;;;4959138;28;20042;-52
2022/06/01 12:53:39;;;;;;;3.90;3.50;;;21.70;44.30;;;;;;4952585;29;20102;-54
2022/06/01 12:56:17;;;;;;;4.47;4.07;;;21.50;44.60;;;;;;4950294;28;20047;-50
2022/06/01 12:58:47;;;;;;;5.63;3.83;;;21.20;44.90;;;;;;4956809;28;20047;-51
2022/06/01 13:01:27;;;;;;;4.95;4.53;;;20.90;46.80;;;;;;4966347;28;20118;-49
2022/06/01 13:04:00;;;;;;;5.28;4.88;;;20.60;48.20;;;;;;4908339;28;20047;-49
2022/06/01 13:06:28;;;;;;;5.53;5.03;;;20.30;49.80;;;;;;4945280;28;20083;-50
2022/06/01 13:09:01;;;;;;;5.88;4.40;;;20.00;50.30;;;;;;4930297;28;20519;-51
2022/06/01 13:11:30;;;;;;;4.90;4.43;;;19.60;51.20;;;;;;4957400;28;20392;-52
2022/06/01 13:14:00;;;;;;;5.20;4.57;;;19.30;51.70;;;;;;4931861;28;20045;-52
2022/06/01 13:16:45;;;;;;;4.82;4.45;;;19.10;52.60;;;;;;4938551;28;20047;-51
2022/06/01 13:19:24;;;;;;;5.10;4.70;;;18.80;53.90;;;;;;4927646;28;20066;-49
2022/06/01 13:22:19;;;;;;;5.10;4.53;;;18.60;53.70;;;;;;4958624;28;20126;-53
2022/06/01 13:24:55;;;;;;;5.07;4.68;;;18.40;54.30;;;;;;4936195;28;20053;-53
2022/06/01 13:27:23;;;;;;;5.32;4.93;;;18.30;54.60;;;;;;4942106;28;20559;-47
2022/06/01 13:29:53;;;;;;;5.25;4.80;;;18.20;55.20;;;;;;4934400;28;20102;-53
2022/06/01 13:32:31;;;;;;;4.40;4.00;;;18.10;55.70;;;;;;4950092;28;20110;-49
2022/06/01 13:35:20;;;;;;;5.07;4.68;;;18.10;56.90;;;;;;4939572;28;20043;-53
2022/06/01 13:37:50;;;;;;;5.50;4.82;;;18.00;57.00;;;;;;4934102;28;20075;-48
2022/06/01 13:40:26;;;;;;;5.35;4.85;;;18.00;57.00;;;;;;4940842;28;20053;-52
2022/06/01 13:43:04;;;;;;;4.78;4.40;;;18.10;57.50;;;;;;4933480;28;20805;-53
2022/06/01 13:45:55;;;;;;;4.85;4.45;;;18.10;57.50;;;;;;4942961;28;20038;-53
2022/06/01 13:48:53;;;;;;;3.78;3.58;;;18.10;56.60;;;;;;4935562;28;20055;-53
2022/06/01 13:51:41;;;;;;;6.45;4.15;;;18.20;57.60;;;;;;4943024;28;20744;-49
2022/06/01 13:54:26;;;;;;;4.53;4.13;;;18.30;57.70;;;;;;4933296;28;20071;-51